sensor_id;sensor_type;location;lat;lon;timestamp;pressure;altitude;pressure_sealevel;temperature;humidity
40920;BME280;26652;50.280;19.026;2023-07-09T00:00:37;98727.56;;;19.17;70.74
40920;BME280;26652;50.280;19.026;2023-07-09T00:02:58;98733.72;;;19.28;70.20
40920;BME280;26652;50.280;19.026;2023-07-09T00:04:59;98737.88;;;19.29;70.28
40920;BME280;26652;50.280;19.026;2023-07-09T00:07:02;98735.75;;;19.26;69.90
40920;BME280;26652;50.280;19.026;2023-07-09T00:09:04;98735.19;;;19.12;69.56
40920;BME280;26652;50.280;19.026;2023-07-09T00:11:05;98739.00;;;19.10;69.93
40920;BME280;26652;50.280;19.026;2023-07-09T00:13:07;98732.16;;;18.92;70.46
40920;BME280;26652;50.280;19.026;2023-07-09T00:15:09;98742.69;;;19.14;70.05
40920;BME280;26652;50.280;19.026;2023-07-09T00:17:15;98720.03;;;19.16;69.28
40920;BME280;26652;50.280;19.026;2023-07-09T00:19:20;98734.63;;;19.22;69.48
40920;BME280;26652;50.280;19.026;2023-07-09T00:21:23;98739.66;;;19.28;70.14
40920;BME280;26652;50.280;19.026;2023-07-09T00:23:24;98736.84;;;18.95;72.57
40920;BME280;26652;50.280;19.026;2023-07-09T00:25:25;98732.03;;;18.75;72.86
40920;BME280;26652;50.280;19.026;2023-07-09T00:27:28;98749.63;;;18.78;72.93
40920;BME280;26652;50.280;19.026;2023-07-09T00:29:31;98727.22;;;18.67;72.98
40920;BME280;26652;50.280;19.026;2023-07-09T00:31:31;98736.22;;;18.46;74.03
40920;BME280;26652;50.280;19.026;2023-07-09T00:33:32;98753.78;;;18.68;73.03
40920;BME280;26652;50.280;19.026;2023-07-09T00:35:33;98739.19;;;18.61;73.22
40920;BME280;26652;50.280;19.026;2023-07-09T00:37:34;98728.81;;;18.50;73.79
40920;BME280;26652;50.280;19.026;2023-07-09T00:39:34;98728.72;;;18.56;73.18
40920;BME280;26652;50.280;19.026;2023-07-09T00:41:36;98721.78;;;18.57;73.61
40920;BME280;26652;50.280;19.026;2023-07-09T00:43:37;98734.16;;;18.67;71.77
40920;BME280;26652;50.280;19.026;2023-07-09T00:45:38;98723.63;;;18.68;71.22
40920;BME280;26652;50.280;19.026;2023-07-09T00:49:59;98739.09;;;18.80;70.95
40920;BME280;26652;50.280;19.026;2023-07-09T00:54:22;98741.78;;;18.73;70.41
40920;BME280;26652;50.280;19.026;2023-07-09T00:56:37;98714.94;;;18.51;70.88
40920;BME280;26652;50.280;19.026;2023-07-09T00:58:42;98715.41;;;18.59;70.58
40920;BME280;26652;50.280;19.026;2023-07-09T01:00:54;98713.34;;;18.50;72.68
40920;BME280;26652;50.280;19.026;2023-07-09T01:02:56;98719.63;;;18.42;74.34
40920;BME280;26652;50.280;19.026;2023-07-09T01:04:59;98713.13;;;18.51;72.36
40920;BME280;26652;50.280;19.026;2023-07-09T01:07:02;98720.25;;;18.68;71.78
40920;BME280;26652;50.280;19.026;2023-07-09T01:09:03;98711.41;;;18.64;71.66
40920;BME280;26652;50.280;19.026;2023-07-09T01:11:04;98719.09;;;18.52;72.94
40920;BME280;26652;50.280;19.026;2023-07-09T01:13:09;98716.72;;;18.50;73.17
40920;BME280;26652;50.280;19.026;2023-07-09T01:15:10;98714.38;;;18.49;73.33
40920;BME280;26652;50.280;19.026;2023-07-09T01:17:11;98719.53;;;18.19;75.11
40920;BME280;26652;50.280;19.026;2023-07-09T01:19:13;98724.13;;;18.17;76.31
40920;BME280;26652;50.280;19.026;2023-07-09T01:21:14;98717.50;;;18.09;75.69
40920;BME280;26652;50.280;19.026;2023-07-09T01:23:17;98714.69;;;18.11;75.19
40920;BME280;26652;50.280;19.026;2023-07-09T01:25:18;98740.72;;;18.21;75.74
40920;BME280;26652;50.280;19.026;2023-07-09T01:27:23;98725.72;;;18.18;74.91
40920;BME280;26652;50.280;19.026;2023-07-09T01:29:30;98708.09;;;18.15;74.70
40920;BME280;26652;50.280;19.026;2023-07-09T01:31:31;98733.38;;;18.36;74.61
40920;BME280;26652;50.280;19.026;2023-07-09T01:33:32;98722.25;;;18.24;74.64
40920;BME280;26652;50.280;19.026;2023-07-09T01:35:36;98717.31;;;18.22;74.80
40920;BME280;26652;50.280;19.026;2023-07-09T01:37:37;98719.50;;;18.07;75.79
40920;BME280;26652;50.280;19.026;2023-07-09T01:39:38;98713.94;;;17.92;76.28
40920;BME280;26652;50.280;19.026;2023-07-09T01:41:41;98730.84;;;17.88;75.97
40920;BME280;26652;50.280;19.026;2023-07-09T01:43:42;98721.97;;;17.84;75.37
40920;BME280;26652;50.280;19.026;2023-07-09T01:45:43;98715.25;;;17.83;75.77
40920;BME280;26652;50.280;19.026;2023-07-09T01:47:44;98740.97;;;18.01;75.95
40920;BME280;26652;50.280;19.026;2023-07-09T01:49:45;98728.63;;;17.91;75.33
40920;BME280;26652;50.280;19.026;2023-07-09T01:51:47;98731.13;;;17.98;74.80
40920;BME280;26652;50.280;19.026;2023-07-09T01:53:49;98740.69;;;18.09;74.77
40920;BME280;26652;50.280;19.026;2023-07-09T01:55:51;98727.66;;;18.04;74.93
40920;BME280;26652;50.280;19.026;2023-07-09T01:57:52;98731.28;;;17.85;75.88
40920;BME280;26652;50.280;19.026;2023-07-09T01:59:54;98726.28;;;17.72;76.60
40920;BME280;26652;50.280;19.026;2023-07-09T02:01:55;98737.28;;;17.97;75.82
40920;BME280;26652;50.280;19.026;2023-07-09T02:03:58;98740.69;;;18.09;75.17
40920;BME280;26652;50.280;19.026;2023-07-09T02:05:58;98745.09;;;18.20;76.13
40920;BME280;26652;50.280;19.026;2023-07-09T02:08:00;98725.84;;;18.23;75.27
40920;BME280;26652;50.280;19.026;2023-07-09T02:10:01;98732.56;;;17.94;77.14
40920;BME280;26652;50.280;19.026;2023-07-09T02:12:01;98737.13;;;17.92;75.73
40920;BME280;26652;50.280;19.026;2023-07-09T02:14:03;98734.94;;;17.77;76.91
40920;BME280;26652;50.280;19.026;2023-07-09T02:16:04;98732.16;;;17.60;78.13
40920;BME280;26652;50.280;19.026;2023-07-09T02:18:05;98734.22;;;17.52;78.62
40920;BME280;26652;50.280;19.026;2023-07-09T02:20:06;98734.72;;;17.60;79.84
40920;BME280;26652;50.280;19.026;2023-07-09T02:22:08;98722.41;;;17.44;81.02
40920;BME280;26652;50.280;19.026;2023-07-09T02:24:09;98730.94;;;17.45;80.56
40920;BME280;26652;50.280;19.026;2023-07-09T02:26:10;98723.69;;;17.17;81.49
40920;BME280;26652;50.280;19.026;2023-07-09T02:28:10;98726.91;;;17.30;81.50
40920;BME280;26652;50.280;19.026;2023-07-09T02:30:11;98729.66;;;17.54;79.82
40920;BME280;26652;50.280;19.026;2023-07-09T02:32:23;98744.31;;;17.53;79.73
40920;BME280;26652;50.280;19.026;2023-07-09T02:34:27;98747.03;;;17.58;79.56
40920;BME280;26652;50.280;19.026;2023-07-09T02:36:28;98748.44;;;17.54;80.15
40920;BME280;26652;50.280;19.026;2023-07-09T02:38:29;98747.78;;;17.66;79.22
40920;BME280;26652;50.280;19.026;2023-07-09T02:40:30;98746.94;;;17.65;78.56
40920;BME280;26652;50.280;19.026;2023-07-09T02:42:31;98760.03;;;17.63;79.32
40920;BME280;26652;50.280;19.026;2023-07-09T02:44:31;98743.09;;;17.74;79.41
40920;BME280;26652;50.280;19.026;2023-07-09T02:46:33;98743.16;;;17.49;79.34
40920;BME280;26652;50.280;19.026;2023-07-09T02:48:33;98736.91;;;17.20;81.07
40920;BME280;26652;50.280;19.026;2023-07-09T02:50:34;98741.44;;;17.43;79.10
40920;BME280;26652;50.280;19.026;2023-07-09T02:52:35;98762.91;;;17.55;79.28
40920;BME280;26652;50.280;19.026;2023-07-09T02:54:36;98741.72;;;17.53;79.47
40920;BME280;26652;50.280;19.026;2023-07-09T02:56:37;98750.03;;;17.55;80.36
40920;BME280;26652;50.280;19.026;2023-07-09T02:58:37;98746.53;;;17.50;80.64
40920;BME280;26652;50.280;19.026;2023-07-09T03:00:38;98742.16;;;17.50;80.08
40920;BME280;26652;50.280;19.026;2023-07-09T03:02:39;98748.25;;;17.56;79.62
40920;BME280;26652;50.280;19.026;2023-07-09T03:04:39;98752.97;;;17.59;79.77
40920;BME280;26652;50.280;19.026;2023-07-09T03:06:40;98755.59;;;17.52;80.37
40920;BME280;26652;50.280;19.026;2023-07-09T03:08:41;98758.31;;;17.39;81.04
40920;BME280;26652;50.280;19.026;2023-07-09T03:10:42;98748.34;;;17.24;81.74
40920;BME280;26652;50.280;19.026;2023-07-09T03:12:42;98747.25;;;17.14;82.73
40920;BME280;26652;50.280;19.026;2023-07-09T03:14:47;98753.25;;;17.08;83.24
40920;BME280;26652;50.280;19.026;2023-07-09T03:16:48;98757.69;;;17.19;83.29
40920;BME280;26652;50.280;19.026;2023-07-09T03:18:49;98738.03;;;17.06;83.53
40920;BME280;26652;50.280;19.026;2023-07-09T03:20:49;98759.34;;;17.13;84.18
40920;BME280;26652;50.280;19.026;2023-07-09T03:22:50;98769.41;;;17.15;85.32
40920;BME280;26652;50.280;19.026;2023-07-09T03:24:51;98751.84;;;17.30;83.73
40920;BME280;26652;50.280;19.026;2023-07-09T03:26:52;98747.22;;;17.39;83.23
40920;BME280;26652;50.280;19.026;2023-07-09T03:28:53;98749.06;;;17.31;83.51
40920;BME280;26652;50.280;19.026;2023-07-09T03:30:55;98756.84;;;17.25;84.53
40920;BME280;26652;50.280;19.026;2023-07-09T03:32:56;98768.56;;;17.21;85.64
40920;BME280;26652;50.280;19.026;2023-07-09T03:34:57;98770.22;;;17.33;85.05
40920;BME280;26652;50.280;19.026;2023-07-09T03:36:57;98775.47;;;17.45;84.69
40920;BME280;26652;50.280;19.026;2023-07-09T03:38:58;98752.00;;;17.35;84.40
40920;BME280;26652;50.280;19.026;2023-07-09T03:40:59;98750.34;;;17.22;86.50
40920;BME280;26652;50.280;19.026;2023-07-09T03:43:00;98765.09;;;17.52;85.28
40920;BME280;26652;50.280;19.026;2023-07-09T03:45:00;98753.75;;;17.78;83.74
40920;BME280;26652;50.280;19.026;2023-07-09T03:47:01;98767.69;;;17.70;84.35
40920;BME280;26652;50.280;19.026;2023-07-09T03:49:02;98770.84;;;17.72;83.38
40920;BME280;26652;50.280;19.026;2023-07-09T03:51:03;98759.91;;;17.77;83.05
40920;BME280;26652;50.280;19.026;2023-07-09T03:53:04;98772.13;;;17.81;83.88
40920;BME280;26652;50.280;19.026;2023-07-09T03:55:06;98751.38;;;17.76;83.92
40920;BME280;26652;50.280;19.026;2023-07-09T03:57:07;98778.31;;;18.10;82.67
40920;BME280;26652;50.280;19.026;2023-07-09T03:59:08;98760.50;;;18.09;82.09
40920;BME280;26652;50.280;19.026;2023-07-09T04:01:09;98775.06;;;18.33;80.96
40920;BME280;26652;50.280;19.026;2023-07-09T04:03:10;98757.72;;;18.40;80.53
40920;BME280;26652;50.280;19.026;2023-07-09T04:05:12;98761.88;;;18.11;83.28
40920;BME280;26652;50.280;19.026;2023-07-09T04:07:13;98764.88;;;18.08;83.56
40920;BME280;26652;50.280;19.026;2023-07-09T04:09:13;98768.91;;;18.34;83.48
40920;BME280;26652;50.280;19.026;2023-07-09T04:11:14;98749.06;;;18.35;81.72
40920;BME280;26652;50.280;19.026;2023-07-09T04:13:15;98744.88;;;18.52;80.59
40920;BME280;26652;50.280;19.026;2023-07-09T04:15:16;98744.47;;;18.37;83.69
40920;BME280;26652;50.280;19.026;2023-07-09T04:17:17;98755.81;;;18.36;83.41
40920;BME280;26652;50.280;19.026;2023-07-09T04:19:18;98756.75;;;18.53;83.37
40920;BME280;26652;50.280;19.026;2023-07-09T04:21:18;98760.34;;;18.52;83.10
40920;BME280;26652;50.280;19.026;2023-07-09T04:23:20;98780.03;;;18.88;81.71
40920;BME280;26652;50.280;19.026;2023-07-09T04:25:21;98781.16;;;18.92;81.70
40920;BME280;26652;50.280;19.026;2023-07-09T04:27:22;98759.06;;;19.08;79.92
40920;BME280;26652;50.280;19.026;2023-07-09T04:29:24;98765.47;;;19.17;80.73
40920;BME280;26652;50.280;19.026;2023-07-09T04:31:24;98777.25;;;19.24;81.12
40920;BME280;26652;50.280;19.026;2023-07-09T04:33:25;98762.34;;;19.38;78.07
40920;BME280;26652;50.280;19.026;2023-07-09T04:35:26;98779.06;;;19.71;77.30
40920;BME280;26652;50.280;19.026;2023-07-09T04:37:27;98762.09;;;19.75;77.82
40920;BME280;26652;50.280;19.026;2023-07-09T04:39:27;98772.00;;;19.95;77.43
40920;BME280;26652;50.280;19.026;2023-07-09T04:41:29;98769.06;;;20.03;75.27
40920;BME280;26652;50.280;19.026;2023-07-09T04:43:29;98767.72;;;20.00;76.25
40920;BME280;26652;50.280;19.026;2023-07-09T04:45:32;98755.53;;;20.12;72.75
40920;BME280;26652;50.280;19.026;2023-07-09T04:47:32;98774.00;;;20.33;70.99
40920;BME280;26652;50.280;19.026;2023-07-09T04:49:34;98788.88;;;20.54;67.71
40920;BME280;26652;50.280;19.026;2023-07-09T04:51:35;98777.38;;;20.62;66.98
40920;BME280;26652;50.280;19.026;2023-07-09T04:53:35;98788.75;;;20.94;65.22
40920;BME280;26652;50.280;19.026;2023-07-09T04:55:39;98792.53;;;21.59;64.35
40920;BME280;26652;50.280;19.026;2023-07-09T04:57:40;98787.03;;;22.21;61.36
40920;BME280;26652;50.280;19.026;2023-07-09T04:59:40;98789.50;;;22.59;58.84
40920;BME280;26652;50.280;19.026;2023-07-09T05:01:42;98790.03;;;22.93;57.80
40920;BME280;26652;50.280;19.026;2023-07-09T05:03:43;98802.03;;;23.41;55.77
40920;BME280;26652;50.280;19.026;2023-07-09T05:05:45;98806.28;;;24.25;53.59
40920;BME280;26652;50.280;19.026;2023-07-09T05:07:46;98807.63;;;25.34;50.79
40920;BME280;26652;50.280;19.026;2023-07-09T05:09:47;98805.69;;;25.86;50.92
40920;BME280;26652;50.280;19.026;2023-07-09T05:11:49;98805.84;;;26.49;50.16
40920;BME280;26652;50.280;19.026;2023-07-09T05:13:49;98809.66;;;27.24;48.90
40920;BME280;26652;50.280;19.026;2023-07-09T05:15:51;98810.78;;;27.42;46.33
40920;BME280;26652;50.280;19.026;2023-07-09T05:17:51;98819.25;;;27.82;43.83
40920;BME280;26652;50.280;19.026;2023-07-09T05:19:52;98831.84;;;27.80;44.69
40920;BME280;26652;50.280;19.026;2023-07-09T05:21:53;98819.06;;;27.01;46.45
40920;BME280;26652;50.280;19.026;2023-07-09T05:23:54;98819.75;;;25.90;48.37
40920;BME280;26652;50.280;19.026;2023-07-09T05:25:59;98814.44;;;25.25;51.01
40920;BME280;26652;50.280;19.026;2023-07-09T05:28:00;98818.84;;;25.25;50.67
40920;BME280;26652;50.280;19.026;2023-07-09T05:30:00;98800.38;;;24.75;52.83
40920;BME280;26652;50.280;19.026;2023-07-09T05:32:01;98813.34;;;24.30;53.13
40920;BME280;26652;50.280;19.026;2023-07-09T05:34:02;98817.97;;;24.23;51.88
40920;BME280;26652;50.280;19.026;2023-07-09T05:36:03;98824.81;;;24.34;52.16
40920;BME280;26652;50.280;19.026;2023-07-09T05:38:04;98822.72;;;24.31;51.51
40920;BME280;26652;50.280;19.026;2023-07-09T05:40:06;98820.47;;;23.82;51.65
40920;BME280;26652;50.280;19.026;2023-07-09T05:42:07;98814.53;;;23.44;52.53
40920;BME280;26652;50.280;19.026;2023-07-09T05:44:08;98820.25;;;23.46;52.50
40920;BME280;26652;50.280;19.026;2023-07-09T05:46:09;98827.78;;;23.43;55.36
40920;BME280;26652;50.280;19.026;2023-07-09T05:48:10;98807.94;;;23.27;53.84
40920;BME280;26652;50.280;19.026;2023-07-09T05:50:11;98814.13;;;23.21;54.34
40920;BME280;26652;50.280;19.026;2023-07-09T05:52:12;98820.69;;;23.33;54.29
40920;BME280;26652;50.280;19.026;2023-07-09T05:54:13;98811.56;;;23.26;54.30
40920;BME280;26652;50.280;19.026;2023-07-09T05:56:14;98816.44;;;23.17;53.84
40920;BME280;26652;50.280;19.026;2023-07-09T05:58:14;98829.75;;;23.26;53.73
40920;BME280;26652;50.280;19.026;2023-07-09T06:00:15;98821.88;;;23.15;53.85
40920;BME280;26652;50.280;19.026;2023-07-09T06:02:19;98816.66;;;23.10;54.00
40920;BME280;26652;50.280;19.026;2023-07-09T06:04:20;98821.69;;;23.27;54.31
40920;BME280;26652;50.280;19.026;2023-07-09T06:06:20;98816.59;;;23.05;53.76
40920;BME280;26652;50.280;19.026;2023-07-09T06:08:22;98840.34;;;23.19;54.76
40920;BME280;26652;50.280;19.026;2023-07-09T06:10:23;98822.22;;;22.92;54.58
40920;BME280;26652;50.280;19.026;2023-07-09T06:12:24;98825.09;;;22.96;54.82
40920;BME280;26652;50.280;19.026;2023-07-09T06:14:25;98820.28;;;23.09;54.43
40920;BME280;26652;50.280;19.026;2023-07-09T06:16:27;98830.28;;;23.28;54.73
40920;BME280;26652;50.280;19.026;2023-07-09T06:18:27;98831.91;;;23.39;54.27
40920;BME280;26652;50.280;19.026;2023-07-09T06:20:31;98813.19;;;23.37;53.67
40920;BME280;26652;50.280;19.026;2023-07-09T06:22:32;98826.34;;;23.57;54.32
40920;BME280;26652;50.280;19.026;2023-07-09T06:24:33;98814.31;;;23.51;53.93
40920;BME280;26652;50.280;19.026;2023-07-09T06:26:34;98823.19;;;23.55;53.28
40920;BME280;26652;50.280;19.026;2023-07-09T06:28:34;98822.06;;;23.46;53.46
40920;BME280;26652;50.280;19.026;2023-07-09T06:30:36;98841.44;;;23.65;53.84
40920;BME280;26652;50.280;19.026;2023-07-09T06:32:36;98819.50;;;23.51;53.64
40920;BME280;26652;50.280;19.026;2023-07-09T06:34:37;98820.75;;;23.43;52.99
40920;BME280;26652;50.280;19.026;2023-07-09T06:36:38;98814.28;;;23.46;53.45
40920;BME280;26652;50.280;19.026;2023-07-09T06:38:39;98818.84;;;23.66;53.51
40920;BME280;26652;50.280;19.026;2023-07-09T06:40:40;98818.63;;;23.77;52.37
40920;BME280;26652;50.280;19.026;2023-07-09T06:42:40;98821.53;;;23.86;52.64
40920;BME280;26652;50.280;19.026;2023-07-09T06:44:41;98821.25;;;23.83;52.07
40920;BME280;26652;50.280;19.026;2023-07-09T06:46:42;98830.66;;;23.89;51.68
40920;BME280;26652;50.280;19.026;2023-07-09T06:48:45;98825.72;;;23.97;51.83
40920;BME280;26652;50.280;19.026;2023-07-09T06:50:47;98826.50;;;24.03;52.22
40920;BME280;26652;50.280;19.026;2023-07-09T06:52:48;98817.91;;;24.02;51.59
40920;BME280;26652;50.280;19.026;2023-07-09T06:54:48;98837.75;;;24.24;51.54
40920;BME280;26652;50.280;19.026;2023-07-09T06:56:49;98826.03;;;24.21;51.64
40920;BME280;26652;50.280;19.026;2023-07-09T06:58:50;98820.38;;;24.34;51.12
40920;BME280;26652;50.280;19.026;2023-07-09T07:02:52;98832.13;;;24.47;50.51
40920;BME280;26652;50.280;19.026;2023-07-09T07:04:53;98820.94;;;24.57;50.61
40920;BME280;26652;50.280;19.026;2023-07-09T07:06:53;98823.56;;;24.67;49.94
40920;BME280;26652;50.280;19.026;2023-07-09T07:08:56;98824.34;;;24.67;49.69
40920;BME280;26652;50.280;19.026;2023-07-09T07:10:59;98823.84;;;24.81;49.61
40920;BME280;26652;50.280;19.026;2023-07-09T07:13:03;98824.88;;;24.90;49.04
40920;BME280;26652;50.280;19.026;2023-07-09T07:15:04;98843.63;;;25.07;48.91
40920;BME280;26652;50.280;19.026;2023-07-09T07:17:05;98841.28;;;25.16;48.79
40920;BME280;26652;50.280;19.026;2023-07-09T07:19:06;98823.81;;;25.16;49.07
40920;BME280;26652;50.280;19.026;2023-07-09T07:21:07;98838.63;;;25.41;49.49
40920;BME280;26652;50.280;19.026;2023-07-09T07:23:07;98820.13;;;25.42;50.37
40920;BME280;26652;50.280;19.026;2023-07-09T07:25:09;98826.63;;;25.50;48.94
40920;BME280;26652;50.280;19.026;2023-07-09T07:27:09;98825.28;;;25.73;49.37
40920;BME280;26652;50.280;19.026;2023-07-09T07:29:10;98821.31;;;25.86;48.54
40920;BME280;26652;50.280;19.026;2023-07-09T07:31:11;98817.56;;;26.07;48.94
40920;BME280;26652;50.280;19.026;2023-07-09T07:33:14;98817.22;;;26.19;50.10
40920;BME280;26652;50.280;19.026;2023-07-09T07:35:15;98824.19;;;26.38;48.59
40920;BME280;26652;50.280;19.026;2023-07-09T07:37:18;98825.38;;;26.56;47.21
40920;BME280;26652;50.280;19.026;2023-07-09T07:39:22;98826.03;;;26.77;46.59
40920;BME280;26652;50.280;19.026;2023-07-09T07:41:23;98819.88;;;26.97;47.01
40920;BME280;26652;50.280;19.026;2023-07-09T07:43:23;98818.19;;;27.06;45.47
40920;BME280;26652;50.280;19.026;2023-07-09T07:45:24;98826.31;;;27.04;44.64
40920;BME280;26652;50.280;19.026;2023-07-09T07:47:25;98826.41;;;27.23;45.24
40920;BME280;26652;50.280;19.026;2023-07-09T07:49:27;98828.53;;;27.45;44.95
40920;BME280;26652;50.280;19.026;2023-07-09T07:51:28;98825.75;;;27.36;44.74
40920;BME280;26652;50.280;19.026;2023-07-09T07:53:30;98839.72;;;27.51;44.86
40920;BME280;26652;50.280;19.026;2023-07-09T07:55:30;98822.09;;;27.38;44.55
40920;BME280;26652;50.280;19.026;2023-07-09T07:57:32;98819.63;;;27.46;44.36
40920;BME280;26652;50.280;19.026;2023-07-09T07:59:32;98817.94;;;27.60;43.67
40920;BME280;26652;50.280;19.026;2023-07-09T08:01:35;98822.16;;;27.80;45.26
40920;BME280;26652;50.280;19.026;2023-07-09T08:03:36;98823.81;;;27.95;43.25
40920;BME280;26652;50.280;19.026;2023-07-09T08:05:36;98824.47;;;28.06;45.34
40920;BME280;26652;50.280;19.026;2023-07-09T08:07:37;98844.03;;;28.08;43.44
40920;BME280;26652;50.280;19.026;2023-07-09T08:09:38;98818.16;;;27.88;43.12
40920;BME280;26652;50.280;19.026;2023-07-09T08:11:39;98817.09;;;28.08;44.56
40920;BME280;26652;50.280;19.026;2023-07-09T08:13:40;98839.19;;;28.39;43.34
40920;BME280;26652;50.280;19.026;2023-07-09T08:15:41;98819.38;;;28.33;41.24
40920;BME280;26652;50.280;19.026;2023-07-09T08:17:43;98825.75;;;28.46;41.34
40920;BME280;26652;50.280;19.026;2023-07-09T08:19:46;98815.53;;;28.63;42.09
40920;BME280;26652;50.280;19.026;2023-07-09T08:21:48;98836.06;;;28.56;41.96
40920;BME280;26652;50.280;19.026;2023-07-09T08:23:48;98818.22;;;28.20;40.34
40920;BME280;26652;50.280;19.026;2023-07-09T08:25:56;98822.69;;;28.20;40.75
40920;BME280;26652;50.280;19.026;2023-07-09T08:27:57;98815.34;;;28.41;40.07
40920;BME280;26652;50.280;19.026;2023-07-09T08:29:58;98824.94;;;28.64;38.62
40920;BME280;26652;50.280;19.026;2023-07-09T08:31:58;98822.53;;;28.68;39.11
40920;BME280;26652;50.280;19.026;2023-07-09T08:33:59;98818.56;;;28.70;38.12
40920;BME280;26652;50.280;19.026;2023-07-09T08:36:00;98817.09;;;28.64;38.16
40920;BME280;26652;50.280;19.026;2023-07-09T08:38:01;98811.53;;;28.84;39.50
40920;BME280;26652;50.280;19.026;2023-07-09T08:40:04;98828.00;;;29.04;39.16
40920;BME280;26652;50.280;19.026;2023-07-09T08:42:16;98818.97;;;28.77;36.98
40920;BME280;26652;50.280;19.026;2023-07-09T08:44:44;98827.31;;;28.79;38.13
40920;BME280;26652;50.280;19.026;2023-07-09T08:49:59;98816.50;;;28.86;36.56
40920;BME280;26652;50.280;19.026;2023-07-09T08:52:07;98805.88;;;28.77;35.50
40920;BME280;26652;50.280;19.026;2023-07-09T08:54:21;98819.53;;;28.93;36.70
40920;BME280;26652;50.280;19.026;2023-07-09T08:56:27;98805.72;;;28.87;35.82
40920;BME280;26652;50.280;19.026;2023-07-09T08:58:30;98809.63;;;28.90;37.35
40920;BME280;26652;50.280;19.026;2023-07-09T09:00:51;98829.44;;;28.96;35.70
40920;BME280;26652;50.280;19.026;2023-07-09T09:02:58;98817.06;;;28.83;36.07
40920;BME280;26652;50.280;19.026;2023-07-09T09:05:02;98803.75;;;28.79;36.03
40920;BME280;26652;50.280;19.026;2023-07-09T09:07:19;98800.34;;;28.79;36.00
40920;BME280;26652;50.280;19.026;2023-07-09T09:09:36;98821.00;;;28.99;37.02
40920;BME280;26652;50.280;19.026;2023-07-09T09:11:41;98820.03;;;28.95;36.48
40920;BME280;26652;50.280;19.026;2023-07-09T09:13:45;98813.69;;;28.82;36.32
40920;BME280;26652;50.280;19.026;2023-07-09T09:15:47;98811.91;;;28.59;35.60
40920;BME280;26652;50.280;19.026;2023-07-09T09:17:52;98807.72;;;28.77;37.74
40920;BME280;26652;50.280;19.026;2023-07-09T09:19:59;98819.94;;;29.00;35.99
40920;BME280;26652;50.280;19.026;2023-07-09T09:22:05;98801.06;;;28.84;34.90
40920;BME280;26652;50.280;19.026;2023-07-09T09:24:37;98814.13;;;29.03;35.89
40920;BME280;26652;50.280;19.026;2023-07-09T09:26:41;98798.69;;;29.02;35.59
40920;BME280;26652;50.280;19.026;2023-07-09T09:28:43;98789.44;;;29.04;35.92
40920;BME280;26652;50.280;19.026;2023-07-09T09:30:44;98791.56;;;29.16;35.58
40920;BME280;26652;50.280;19.026;2023-07-09T09:32:47;98787.41;;;29.15;35.67
40920;BME280;26652;50.280;19.026;2023-07-09T09:34:49;98798.84;;;29.19;34.54
40920;BME280;26652;50.280;19.026;2023-07-09T09:36:50;98801.69;;;29.22;34.02
40920;BME280;26652;50.280;19.026;2023-07-09T09:38:51;98801.97;;;29.07;33.74
40920;BME280;26652;50.280;19.026;2023-07-09T09:40:59;98800.63;;;29.23;34.55
40920;BME280;26652;50.280;19.026;2023-07-09T09:43:02;98811.59;;;29.39;32.62
40920;BME280;26652;50.280;19.026;2023-07-09T09:45:14;98793.81;;;29.36;33.44
40920;BME280;26652;50.280;19.026;2023-07-09T09:47:16;98789.66;;;29.49;34.82
40920;BME280;26652;50.280;19.026;2023-07-09T09:49:16;98797.53;;;29.63;34.61
40920;BME280;26652;50.280;19.026;2023-07-09T09:51:18;98801.13;;;29.80;34.95
40920;BME280;26652;50.280;19.026;2023-07-09T09:53:23;98812.28;;;29.86;32.69
40920;BME280;26652;50.280;19.026;2023-07-09T09:55:28;98806.84;;;29.82;30.38
40920;BME280;26652;50.280;19.026;2023-07-09T09:57:29;98806.66;;;29.79;30.82
40920;BME280;26652;50.280;19.026;2023-07-09T09:59:32;98819.28;;;29.90;31.30
40920;BME280;26652;50.280;19.026;2023-07-09T10:01:34;98809.38;;;29.87;32.07
40920;BME280;26652;50.280;19.026;2023-07-09T10:03:37;98824.84;;;30.03;31.60
40920;BME280;26652;50.280;19.026;2023-07-09T10:05:43;98826.97;;;29.87;32.07
40920;BME280;26652;50.280;19.026;2023-07-09T10:07:59;98813.34;;;29.85;31.86
40920;BME280;26652;50.280;19.026;2023-07-09T10:10:01;98818.72;;;29.52;31.34
40920;BME280;26652;50.280;19.026;2023-07-09T10:18:59;98821.25;;;29.71;31.32
40920;BME280;26652;50.280;19.026;2023-07-09T10:21:07;98807.91;;;29.81;31.27
40920;BME280;26652;50.280;19.026;2023-07-09T10:23:18;98819.28;;;29.90;30.89
40920;BME280;26652;50.280;19.026;2023-07-09T10:25:56;98823.56;;;30.00;31.98
40920;BME280;26652;50.280;19.026;2023-07-09T10:27:58;98838.16;;;29.79;30.90
40920;BME280;26652;50.280;19.026;2023-07-09T10:35:04;98815.59;;;30.05;30.93
40920;BME280;26652;50.280;19.026;2023-07-09T10:39:42;98793.13;;;30.21;31.18
40920;BME280;26652;50.280;19.026;2023-07-09T10:41:47;98814.44;;;30.20;30.88
40920;BME280;26652;50.280;19.026;2023-07-09T10:44:20;98822.41;;;30.29;32.73
40920;BME280;26652;50.280;19.026;2023-07-09T10:46:24;98803.34;;;30.23;32.45
40920;BME280;26652;50.280;19.026;2023-07-09T10:48:44;98812.00;;;30.23;30.97
40920;BME280;26652;50.280;19.026;2023-07-09T10:50:54;98810.56;;;30.17;31.97
40920;BME280;26652;50.280;19.026;2023-07-09T10:52:58;98807.59;;;30.10;31.21
40920;BME280;26652;50.280;19.026;2023-07-09T10:55:26;98797.44;;;30.17;30.73
40920;BME280;26652;50.280;19.026;2023-07-09T10:57:48;98815.19;;;30.34;31.67
40920;BME280;26652;50.280;19.026;2023-07-09T10:59:52;98795.25;;;29.97;31.53
40920;BME280;26652;50.280;19.026;2023-07-09T11:02:33;98812.78;;;30.24;31.90
40920;BME280;26652;50.280;19.026;2023-07-09T11:05:11;98801.97;;;30.25;31.66
40920;BME280;26652;50.280;19.026;2023-07-09T11:07:11;98799.59;;;30.38;32.01